sensor_id;sensor_type;location;lat;lon;timestamp;P1;P2;P0
70243;PMS7003;57634;51.136;17.024;2022-08-19T00:02:00;12;12;10
70243;PMS7003;57634;51.136;17.024;2022-08-19T00:05:02;12;11;9
70243;PMS7003;57634;51.136;17.024;2022-08-19T00:08:04;13;13;8
70243;PMS7003;57634;51.136;17.024;2022-08-19T00:11:32;12;12;9
70243;PMS7003;57634;51.136;17.024;2022-08-19T00:14:37;12;12;10
70243;PMS7003;57634;51.136;17.024;2022-08-19T00:17:42;13;12;9
70243;PMS7003;57634;51.136;17.024;2022-08-19T00:20:45;12;11;9
70243;PMS7003;57634;51.136;17.024;2022-08-19T00:23:47;10;10;7
70243;PMS7003;57634;51.136;17.024;2022-08-19T00:26:48;15;14;11
70243;PMS7003;57634;51.136;17.024;2022-08-19T00:29:50;14;13;9
70243;PMS7003;57634;51.136;17.024;2022-08-19T00:32:51;13;12;9
70243;PMS7003;57634;51.136;17.024;2022-08-19T00:35:55;13;12;9
70243;PMS7003;57634;51.136;17.024;2022-08-19T00:38:57;12;11;9
70243;PMS7003;57634;51.136;17.024;2022-08-19T00:41:59;13;12;9
70243;PMS7003;57634;51.136;17.024;2022-08-19T00:45:28;12;12;9
70243;PMS7003;57634;51.136;17.024;2022-08-19T00:48:37;15;13;11
70243;PMS7003;57634;51.136;17.024;2022-08-19T00:51:38;12;12;9
70243;PMS7003;57634;51.136;17.024;2022-08-19T00:54:39;11;11;8
70243;PMS7003;57634;51.136;17.024;2022-08-19T00:57:44;13;12;8
70243;PMS7003;57634;51.136;17.024;2022-08-19T01:00:51;10;10;7
70243;PMS7003;57634;51.136;17.024;2022-08-19T01:03:52;12;11;8
70243;PMS7003;57634;51.136;17.024;2022-08-19T01:06:54;12;11;9
70243;PMS7003;57634;51.136;17.024;2022-08-19T01:09:57;10;10;8
70243;PMS7003;57634;51.136;17.024;2022-08-19T01:12:58;12;12;9
70243;PMS7003;57634;51.136;17.024;2022-08-19T01:16:27;12;12;8
70243;PMS7003;57634;51.136;17.024;2022-08-19T01:19:32;13;13;9
70243;PMS7003;57634;51.136;17.024;2022-08-19T01:22:44;11;11;8
70243;PMS7003;57634;51.136;17.024;2022-08-19T01:25:52;11;10;8
70243;PMS7003;57634;51.136;17.024;2022-08-19T01:28:57;12;11;8
70243;PMS7003;57634;51.136;17.024;2022-08-19T01:32:01;13;13;9
70243;PMS7003;57634;51.136;17.024;2022-08-19T01:35:03;11;11;9
70243;PMS7003;57634;51.136;17.024;2022-08-19T01:38:06;11;11;9
70243;PMS7003;57634;51.136;17.024;2022-08-19T01:41:36;11;11;9
70243;PMS7003;57634;51.136;17.024;2022-08-19T01:44:39;13;13;8
70243;PMS7003;57634;51.136;17.024;2022-08-19T01:47:42;13;12;9
70243;PMS7003;57634;51.136;17.024;2022-08-19T01:50:43;11;10;8
70243;PMS7003;57634;51.136;17.024;2022-08-19T01:53:46;14;13;8
70243;PMS7003;57634;51.136;17.024;2022-08-19T01:56:52;11;11;9
70243;PMS7003;57634;51.136;17.024;2022-08-19T02:00:00;12;11;8
70243;PMS7003;57634;51.136;17.024;2022-08-19T02:03:06;11;10;8
70243;PMS7003;57634;51.136;17.024;2022-08-19T02:06:09;13;13;9
70243;PMS7003;57634;51.136;17.024;2022-08-19T02:09:39;14;13;9
70243;PMS7003;57634;51.136;17.024;2022-08-19T02:12:40;14;12;9
70243;PMS7003;57634;51.136;17.024;2022-08-19T02:15:43;11;10;8
70243;PMS7003;57634;51.136;17.024;2022-08-19T02:18:45;12;11;8
70243;PMS7003;57634;51.136;17.024;2022-08-19T02:21:49;10;10;7
70243;PMS7003;57634;51.136;17.024;2022-08-19T02:24:51;12;11;8
70243;PMS7003;57634;51.136;17.024;2022-08-19T02:27:52;13;13;9
70243;PMS7003;57634;51.136;17.024;2022-08-19T02:30:54;12;12;8
70243;PMS7003;57634;51.136;17.024;2022-08-19T02:33:56;12;12;9
70243;PMS7003;57634;51.136;17.024;2022-08-19T02:36:58;10;10;8
70243;PMS7003;57634;51.136;17.024;2022-08-19T02:39:59;12;11;9
70243;PMS7003;57634;51.136;17.024;2022-08-19T02:43:02;13;13;10
70243;PMS7003;57634;51.136;17.024;2022-08-19T02:46:33;13;12;8
70243;PMS7003;57634;51.136;17.024;2022-08-19T02:49:36;11;8;6
70243;PMS7003;57634;51.136;17.024;2022-08-19T02:52:37;12;11;7
70243;PMS7003;57634;51.136;17.024;2022-08-19T02:55:43;10;10;7
70243;PMS7003;57634;51.136;17.024;2022-08-19T02:58:47;9;9;7
70243;PMS7003;57634;51.136;17.024;2022-08-19T03:01:49;10;10;7
70243;PMS7003;57634;51.136;17.024;2022-08-19T03:04:50;10;10;7
70243;PMS7003;57634;51.136;17.024;2022-08-19T03:07:52;10;10;8
70243;PMS7003;57634;51.136;17.024;2022-08-19T03:10:53;10;9;7
70243;PMS7003;57634;51.136;17.024;2022-08-19T03:13:55;11;9;7
70243;PMS7003;57634;51.136;17.024;2022-08-19T03:16:57;14;11;9
70243;PMS7003;57634;51.136;17.024;2022-08-19T03:19:59;11;11;8
70243;PMS7003;57634;51.136;17.024;2022-08-19T03:23:27;11;11;8
70243;PMS7003;57634;51.136;17.024;2022-08-19T03:26:29;11;10;8
70243;PMS7003;57634;51.136;17.024;2022-08-19T03:29:31;11;11;9
70243;PMS7003;57634;51.136;17.024;2022-08-19T03:32:33;11;11;9
70243;PMS7003;57634;51.136;17.024;2022-08-19T03:35:34;11;11;8
70243;PMS7003;57634;51.136;17.024;2022-08-19T03:38:43;11;10;8
70243;PMS7003;57634;51.136;17.024;2022-08-19T03:41:49;12;12;9
70243;PMS7003;57634;51.136;17.024;2022-08-19T03:44:52;13;12;8
70243;PMS7003;57634;51.136;17.024;2022-08-19T03:47:53;13;12;8
70243;PMS7003;57634;51.136;17.024;2022-08-19T03:50:56;13;12;9
70243;PMS7003;57634;51.136;17.024;2022-08-19T03:54:27;13;12;9
70243;PMS7003;57634;51.136;17.024;2022-08-19T03:57:28;11;11;7
70243;PMS7003;57634;51.136;17.024;2022-08-19T04:00:29;10;10;8
70243;PMS7003;57634;51.136;17.024;2022-08-19T04:03:31;12;10;7
70243;PMS7003;57634;51.136;17.024;2022-08-19T04:06:33;12;12;9
70243;PMS7003;57634;51.136;17.024;2022-08-19T04:09:36;10;10;7
70243;PMS7003;57634;51.136;17.024;2022-08-19T04:12:38;14;12;9
70243;PMS7003;57634;51.136;17.024;2022-08-19T04:15:41;13;12;8
70243;PMS7003;57634;51.136;17.024;2022-08-19T04:18:44;12;12;8
70243;PMS7003;57634;51.136;17.024;2022-08-19T04:21:52;12;12;8
70243;PMS7003;57634;51.136;17.024;2022-08-19T04:24:53;13;13;9
70243;PMS7003;57634;51.136;17.024;2022-08-19T04:27:54;16;14;9
70243;PMS7003;57634;51.136;17.024;2022-08-19T04:31:22;16;14;10
70243;PMS7003;57634;51.136;17.024;2022-08-19T04:34:28;13;12;10
70243;PMS7003;57634;51.136;17.024;2022-08-19T04:37:31;17;13;10
70243;PMS7003;57634;51.136;17.024;2022-08-19T04:40:34;16;15;11
70243;PMS7003;57634;51.136;17.024;2022-08-19T04:43:54;13;12;9
70243;PMS7003;57634;51.136;17.024;2022-08-19T04:46:56;12;12;9
70243;PMS7003;57634;51.136;17.024;2022-08-19T04:49:58;15;14;10
70243;PMS7003;57634;51.136;17.024;2022-08-19T04:53:00;13;13;10
70243;PMS7003;57634;51.136;17.024;2022-08-19T04:56:26;13;12;10
70243;PMS7003;57634;51.136;17.024;2022-08-19T04:59:28;12;12;9
70243;PMS7003;57634;51.136;17.024;2022-08-19T05:02:29;14;13;9
70243;PMS7003;57634;51.136;17.024;2022-08-19T05:05:30;13;12;10
70243;PMS7003;57634;51.136;17.024;2022-08-19T05:08:33;12;12;10
70243;PMS7003;57634;51.136;17.024;2022-08-19T05:11:36;13;12;9
70243;PMS7003;57634;51.136;17.024;2022-08-19T05:14:40;14;12;9
70243;PMS7003;57634;51.136;17.024;2022-08-19T05:17:41;15;13;10
70243;PMS7003;57634;51.136;17.024;2022-08-19T05:20:54;15;14;10
70243;PMS7003;57634;51.136;17.024;2022-08-19T05:24:36;15;14;11
70243;PMS7003;57634;51.136;17.024;2022-08-19T05:27:38;14;12;10
70243;PMS7003;57634;51.136;17.024;2022-08-19T05:30:39;14;13;10
70243;PMS7003;57634;51.136;17.024;2022-08-19T05:33:41;13;13;10
70243;PMS7003;57634;51.136;17.024;2022-08-19T05:36:43;15;14;11
70243;PMS7003;57634;51.136;17.024;2022-08-19T05:39:46;15;15;11
70243;PMS7003;57634;51.136;17.024;2022-08-19T05:42:47;15;14;10
70243;PMS7003;57634;51.136;17.024;2022-08-19T05:45:50;16;15;11
70243;PMS7003;57634;51.136;17.024;2022-08-19T05:48:52;13;13;10
70243;PMS7003;57634;51.136;17.024;2022-08-19T05:51:57;13;13;10
70243;PMS7003;57634;51.136;17.024;2022-08-19T05:54:59;5;3;0
70243;PMS7003;57634;51.136;17.024;2022-08-19T05:58:01;14;13;10
70243;PMS7003;57634;51.136;17.024;2022-08-19T06:01:29;12;12;10
70243;PMS7003;57634;51.136;17.024;2022-08-19T06:04:31;14;13;10
70243;PMS7003;57634;51.136;17.024;2022-08-19T06:07:32;14;13;11
70243;PMS7003;57634;51.136;17.024;2022-08-19T06:10:34;13;12;10
70243;PMS7003;57634;51.136;17.024;2022-08-19T06:13:37;13;12;9
70243;PMS7003;57634;51.136;17.024;2022-08-19T06:16:39;16;14;11
70243;PMS7003;57634;51.136;17.024;2022-08-19T06:19:42;12;12;10
70243;PMS7003;57634;51.136;17.024;2022-08-19T06:22:45;12;12;10
70243;PMS7003;57634;51.136;17.024;2022-08-19T06:25:51;13;13;11
70243;PMS7003;57634;51.136;17.024;2022-08-19T06:28:53;12;12;8
70243;PMS7003;57634;51.136;17.024;2022-08-19T06:31:55;12;12;10
70243;PMS7003;57634;51.136;17.024;2022-08-19T06:35:25;13;12;9
70243;PMS7003;57634;51.136;17.024;2022-08-19T06:38:27;11;11;9
70243;PMS7003;57634;51.136;17.024;2022-08-19T06:41:29;13;11;8
70243;PMS7003;57634;51.136;17.024;2022-08-19T06:44:32;11;11;9
70243;PMS7003;57634;51.136;17.024;2022-08-19T06:47:37;13;12;10
70243;PMS7003;57634;51.136;17.024;2022-08-19T06:50:38;11;11;9
70243;PMS7003;57634;51.136;17.024;2022-08-19T06:53:39;12;12;8
70243;PMS7003;57634;51.136;17.024;2022-08-19T06:56:40;9;9;7
70243;PMS7003;57634;51.136;17.024;2022-08-19T06:59:45;9;9;6
70243;PMS7003;57634;51.136;17.024;2022-08-19T07:02:46;10;10;7
70243;PMS7003;57634;51.136;17.024;2022-08-19T07:05:49;10;10;8
70243;PMS7003;57634;51.136;17.024;2022-08-19T07:08:51;10;10;8
70243;PMS7003;57634;51.136;17.024;2022-08-19T07:12:18;11;10;8
70243;PMS7003;57634;51.136;17.024;2022-08-19T07:15:19;9;9;7
70243;PMS7003;57634;51.136;17.024;2022-08-19T07:18:22;10;10;8
70243;PMS7003;57634;51.136;17.024;2022-08-19T07:21:25;9;9;8
70243;PMS7003;57634;51.136;17.024;2022-08-19T07:24:32;8;8;6
70243;PMS7003;57634;51.136;17.024;2022-08-19T07:27:34;8;8;7
70243;PMS7003;57634;51.136;17.024;2022-08-19T07:30:36;9;8;6
70243;PMS7003;57634;51.136;17.024;2022-08-19T07:33:39;7;7;5
70243;PMS7003;57634;51.136;17.024;2022-08-19T07:36:43;9;9;6
70243;PMS7003;57634;51.136;17.024;2022-08-19T07:39:46;8;8;7
70243;PMS7003;57634;51.136;17.024;2022-08-19T07:42:48;8;8;6
70243;PMS7003;57634;51.136;17.024;2022-08-19T07:46:15;9;9;7
70243;PMS7003;57634;51.136;17.024;2022-08-19T07:49:19;8;8;6
70243;PMS7003;57634;51.136;17.024;2022-08-19T07:52:22;8;8;6
70243;PMS7003;57634;51.136;17.024;2022-08-19T07:55:24;9;9;6
70243;PMS7003;57634;51.136;17.024;2022-08-19T07:58:27;8;8;6
70243;PMS7003;57634;51.136;17.024;2022-08-19T08:01:28;6;6;5
70243;PMS7003;57634;51.136;17.024;2022-08-19T08:04:30;8;7;5
70243;PMS7003;57634;51.136;17.024;2022-08-19T08:07:44;6;6;5
70243;PMS7003;57634;51.136;17.024;2022-08-19T08:11:23;7;7;5
70243;PMS7003;57634;51.136;17.024;2022-08-19T08:17:38;7;7;5
70243;PMS7003;57634;51.136;17.024;2022-08-19T08:20:40;8;7;6
70243;PMS7003;57634;51.136;17.024;2022-08-19T08:23:42;8;8;6
70243;PMS7003;57634;51.136;17.024;2022-08-19T08:26:44;8;7;5
70243;PMS7003;57634;51.136;17.024;2022-08-19T08:29:46;7;7;5
70243;PMS7003;57634;51.136;17.024;2022-08-19T08:32:49;8;7;5
70243;PMS7003;57634;51.136;17.024;2022-08-19T08:35:52;8;7;5
70243;PMS7003;57634;51.136;17.024;2022-08-19T08:38:54;9;8;5
70243;PMS7003;57634;51.136;17.024;2022-08-19T08:42:24;7;7;5
70243;PMS7003;57634;51.136;17.024;2022-08-19T08:45:33;7;7;5
70243;PMS7003;57634;51.136;17.024;2022-08-19T08:48:39;8;7;5
70243;PMS7003;57634;51.136;17.024;2022-08-19T08:51:58;8;7;5
70243;PMS7003;57634;51.136;17.024;2022-08-19T08:55:00;7;6;4
70243;PMS7003;57634;51.136;17.024;2022-08-19T08:58:11;6;6;5
70243;PMS7003;57634;51.136;17.024;2022-08-19T09:01:43;6;6;5
70243;PMS7003;57634;51.136;17.024;2022-08-19T09:04:45;7;7;6
70243;PMS7003;57634;51.136;17.024;2022-08-19T09:07:53;8;8;6
70243;PMS7003;57634;51.136;17.024;2022-08-19T09:11:07;7;7;5
70243;PMS7003;57634;51.136;17.024;2022-08-19T09:17:26;6;6;4
70243;PMS7003;57634;51.136;17.024;2022-08-19T09:21:00;7;7;5
70243;PMS7003;57634;51.136;17.024;2022-08-19T09:24:02;8;7;6
70243;PMS7003;57634;51.136;17.024;2022-08-19T09:27:05;4;4;4
70243;PMS7003;57634;51.136;17.024;2022-08-19T09:30:07;7;6;4
70243;PMS7003;57634;51.136;17.024;2022-08-19T09:33:10;6;6;4
70243;PMS7003;57634;51.136;17.024;2022-08-19T09:36:17;7;7;5
70243;PMS7003;57634;51.136;17.024;2022-08-19T09:39:23;6;6;4
70243;PMS7003;57634;51.136;17.024;2022-08-19T09:42:24;8;8;5
70243;PMS7003;57634;51.136;17.024;2022-08-19T09:45:26;6;6;5
70243;PMS7003;57634;51.136;17.024;2022-08-19T09:48:28;7;7;5
70243;PMS7003;57634;51.136;17.024;2022-08-19T09:51:29;5;5;4
70243;PMS7003;57634;51.136;17.024;2022-08-19T09:54:57;8;7;5
70243;PMS7003;57634;51.136;17.024;2022-08-19T09:58:00;7;7;5
70243;PMS7003;57634;51.136;17.024;2022-08-19T10:01:03;6;6;5
70243;PMS7003;57634;51.136;17.024;2022-08-19T10:04:06;8;8;6
70243;PMS7003;57634;51.136;17.024;2022-08-19T10:07:10;8;8;6
70243;PMS7003;57634;51.136;17.024;2022-08-19T10:10:12;9;9;7
70243;PMS7003;57634;51.136;17.024;2022-08-19T10:13:14;9;9;6
70243;PMS7003;57634;51.136;17.024;2022-08-19T10:16:19;11;11;9
70243;PMS7003;57634;51.136;17.024;2022-08-19T10:19:23;8;8;6
70243;PMS7003;57634;51.136;17.024;2022-08-19T10:22:25;10;10;7
70243;PMS7003;57634;51.136;17.024;2022-08-19T10:25:27;7;7;6
70243;PMS7003;57634;51.136;17.024;2022-08-19T10:28:54;8;8;5
70243;PMS7003;57634;51.136;17.024;2022-08-19T10:31:56;7;7;5
70243;PMS7003;57634;51.136;17.024;2022-08-19T10:35:01;7;6;4
70243;PMS7003;57634;51.136;17.024;2022-08-19T10:38:09;8;8;5
70243;PMS7003;57634;51.136;17.024;2022-08-19T10:41:29;9;8;6
70243;PMS7003;57634;51.136;17.024;2022-08-19T10:44:24;8;8;6
70243;PMS7003;57634;51.136;17.024;2022-08-19T10:47:26;6;6;5
70243;PMS7003;57634;51.136;17.024;2022-08-19T10:50:28;6;6;4
70243;PMS7003;57634;51.136;17.024;2022-08-19T10:54:06;9;7;5
70243;PMS7003;57634;51.136;17.024;2022-08-19T10:57:07;7;7;5
70243;PMS7003;57634;51.136;17.024;2022-08-19T11:00:09;7;7;5
70243;PMS7003;57634;51.136;17.024;2022-08-19T11:03:12;9;7;5
70243;PMS7003;57634;51.136;17.024;2022-08-19T11:06:13;7;6;4
70243;PMS7003;57634;51.136;17.024;2022-08-19T11:09:23;7;6;5
70243;PMS7003;57634;51.136;17.024;2022-08-19T11:12:31;8;7;4
70243;PMS7003;57634;51.136;17.024;2022-08-19T11:15:34;6;5;4
70243;PMS7003;57634;51.136;17.024;2022-08-19T11:18:40;7;4;3
70243;PMS7003;57634;51.136;17.024;2022-08-19T11:22:10;6;6;3
70243;PMS7003;57634;51.136;17.024;2022-08-19T11:25:12;6;6;5
70243;PMS7003;57634;51.136;17.024;2022-08-19T11:28:14;5;5;4
70243;PMS7003;57634;51.136;17.024;2022-08-19T11:31:19;5;5;4
70243;PMS7003;57634;51.136;17.024;2022-08-19T11:34:24;5;5;3
70243;PMS7003;57634;51.136;17.024;2022-08-19T11:37:29;4;4;4
70243;PMS7003;57634;51.136;17.024;2022-08-19T11:40:30;4;4;3
70243;PMS7003;57634;51.136;17.024;2022-08-19T11:43:34;7;5;3
70243;PMS7003;57634;51.136;17.024;2022-08-19T11:46:36;5;5;3
70243;PMS7003;57634;51.136;17.024;2022-08-19T11:49:39;4;4;3
70243;PMS7003;57634;51.136;17.024;2022-08-19T11:53:09;4;3;2
70243;PMS7003;57634;51.136;17.024;2022-08-19T11:56:10;6;6;3
70243;PMS7003;57634;51.136;17.024;2022-08-19T11:59:12;6;5;4
70243;PMS7003;57634;51.136;17.024;2022-08-19T12:02:13;3;2;2
70243;PMS7003;57634;51.136;17.024;2022-08-19T12:05:16;2;1;1
70243;PMS7003;57634;51.136;17.024;2022-08-19T12:08:18;1;1;1
70243;PMS7003;57634;51.136;17.024;2022-08-19T12:11:20;1;0;0
70243;PMS7003;57634;51.136;17.024;2022-08-19T12:14:22;3;2;1
70243;PMS7003;57634;51.136;17.024;2022-08-19T12:17:25;1;1;0
70243;PMS7003;57634;51.136;17.024;2022-08-19T12:20:28;1;1;1
70243;PMS7003;57634;51.136;17.024;2022-08-19T12:23:30;2;2;2
70243;PMS7003;57634;51.136;17.024;2022-08-19T12:26:31;2;2;1
70243;PMS7003;57634;51.136;17.024;2022-08-19T12:29:33;3;3;2
70243;PMS7003;57634;51.136;17.024;2022-08-19T12:32:35;4;4;3
70243;PMS7003;57634;51.136;17.024;2022-08-19T12:35:39;3;3;2
70243;PMS7003;57634;51.136;17.024;2022-08-19T12:39:12;4;4;2
70243;PMS7003;57634;51.136;17.024;2022-08-19T12:42:14;4;4;2
70243;PMS7003;57634;51.136;17.024;2022-08-19T12:45:16;4;4;2
70243;PMS7003;57634;51.136;17.024;2022-08-19T12:48:18;3;3;2
70243;PMS7003;57634;51.136;17.024;2022-08-19T12:51:20;3;3;2
70243;PMS7003;57634;51.136;17.024;2022-08-19T12:54:22;3;3;2
70243;PMS7003;57634;51.136;17.024;2022-08-19T12:57:24;2;2;1
70243;PMS7003;57634;51.136;17.024;2022-08-19T13:00:28;3;3;2
70243;PMS7003;57634;51.136;17.024;2022-08-19T13:03:33;3;3;2
70243;PMS7003;57634;51.136;17.024;2022-08-19T13:06:35;3;3;2
70243;PMS7003;57634;51.136;17.024;2022-08-19T13:09:37;3;3;2
70243;PMS7003;57634;51.136;17.024;2022-08-19T13:13:09;4;3;2
70243;PMS7003;57634;51.136;17.024;2022-08-19T13:16:11;3;3;2
70243;PMS7003;57634;51.136;17.024;2022-08-19T13:19:14;4;4;3
70243;PMS7003;57634;51.136;17.024;2022-08-19T13:22:16;3;3;2
70243;PMS7003;57634;51.136;17.024;2022-08-19T13:25:18;3;3;2
70243;PMS7003;57634;51.136;17.024;2022-08-19T13:28:21;4;3;2
70243;PMS7003;57634;51.136;17.024;2022-08-19T13:31:23;3;3;2
70243;PMS7003;57634;51.136;17.024;2022-08-19T13:34:38;4;3;1
70243;PMS7003;57634;51.136;17.024;2022-08-19T13:37:40;4;4;3
70243;PMS7003;57634;51.136;17.024;2022-08-19T13:41:11;4;3;2
70243;PMS7003;57634;51.136;17.024;2022-08-19T13:44:13;2;2;2
70243;PMS7003;57634;51.136;17.024;2022-08-19T13:47:16;2;2;2
70243;PMS7003;57634;51.136;17.024;2022-08-19T13:50:20;4;4;2
70243;PMS7003;57634;51.136;17.024;2022-08-19T13:53:25;3;3;2
70243;PMS7003;57634;51.136;17.024;2022-08-19T13:56:26;3;3;2
70243;PMS7003;57634;51.136;17.024;2022-08-19T13:59:28;2;2;2
70243;PMS7003;57634;51.136;17.024;2022-08-19T14:02:29;3;3;2
70243;PMS7003;57634;51.136;17.024;2022-08-19T14:05:31;5;2;2
70243;PMS7003;57634;51.136;17.024;2022-08-19T14:08:33;4;2;2
70243;PMS7003;57634;51.136;17.024;2022-08-19T14:11:35;3;3;2
70243;PMS7003;57634;51.136;17.024;2022-08-19T14:14:38;4;3;2
70243;PMS7003;57634;51.136;17.024;2022-08-19T14:18:06;3;3;2
70243;PMS7003;57634;51.136;17.024;2022-08-19T14:21:13;3;2;2
70243;PMS7003;57634;51.136;17.024;2022-08-19T14:24:20;4;4;3
70243;PMS7003;57634;51.136;17.024;2022-08-19T14:27:21;3;2;2
70243;PMS7003;57634;51.136;17.024;2022-08-19T14:30:29;4;4;3
70243;PMS7003;57634;51.136;17.024;2022-08-19T14:33:32;4;4;3
70243;PMS7003;57634;51.136;17.024;2022-08-19T14:36:34;6;6;4
70243;PMS7003;57634;51.136;17.024;2022-08-19T14:39:35;5;5;2
70243;PMS7003;57634;51.136;17.024;2022-08-19T14:42:37;3;3;2
70243;PMS7003;57634;51.136;17.024;2022-08-19T14:45:38;4;4;2
70243;PMS7003;57634;51.136;17.024;2022-08-19T14:49:06;5;3;2
70243;PMS7003;57634;51.136;17.024;2022-08-19T14:52:08;2;2;2
70243;PMS7003;57634;51.136;17.024;2022-08-19T14:55:09;3;3;2
70243;PMS7003;57634;51.136;17.024;2022-08-19T14:58:10;3;3;2
70243;PMS7003;57634;51.136;17.024;2022-08-19T15:01:13;2;2;2
70243;PMS7003;57634;51.136;17.024;2022-08-19T15:04:15;6;4;3
70243;PMS7003;57634;51.136;17.024;2022-08-19T15:07:17;6;6;4
70243;PMS7003;57634;51.136;17.024;2022-08-19T15:10:18;5;5;3
70243;PMS7003;57634;51.136;17.024;2022-08-19T15:13:20;6;6;5
70243;PMS7003;57634;51.136;17.024;2022-08-19T15:16:22;7;6;5
70243;PMS7003;57634;51.136;17.024;2022-08-19T15:19:26;7;7;5
70243;PMS7003;57634;51.136;17.024;2022-08-19T15:22:28;8;8;6
70243;PMS7003;57634;51.136;17.024;2022-08-19T15:25:29;11;10;8
70243;PMS7003;57634;51.136;17.024;2022-08-19T15:28:59;11;11;8
70243;PMS7003;57634;51.136;17.024;2022-08-19T15:32:02;10;10;8
70243;PMS7003;57634;51.136;17.024;2022-08-19T15:35:07;10;10;7
70243;PMS7003;57634;51.136;17.024;2022-08-19T15:38:08;12;11;9
70243;PMS7003;57634;51.136;17.024;2022-08-19T15:41:20;12;11;8
70243;PMS7003;57634;51.136;17.024;2022-08-19T15:44:24;13;13;10
70243;PMS7003;57634;51.136;17.024;2022-08-19T15:47:25;12;12;9
70243;PMS7003;57634;51.136;17.024;2022-08-19T15:50:29;14;14;10
70243;PMS7003;57634;51.136;17.024;2022-08-19T15:53:31;13;13;10
70243;PMS7003;57634;51.136;17.024;2022-08-19T15:57:01;14;13;10
70243;PMS7003;57634;51.136;17.024;2022-08-19T16:00:15;13;12;9
70243;PMS7003;57634;51.136;17.024;2022-08-19T16:03:29;12;12;9
70243;PMS7003;57634;51.136;17.024;2022-08-19T16:06:52;12;12;9
70243;PMS7003;57634;51.136;17.024;2022-08-19T16:10:18;14;13;9
70243;PMS7003;57634;51.136;17.024;2022-08-19T16:13:20;14;14;10
70243;PMS7003;57634;51.136;17.024;2022-08-19T16:16:24;13;13;10
70243;PMS7003;57634;51.136;17.024;2022-08-19T16:19:32;16;14;11
70243;PMS7003;57634;51.136;17.024;2022-08-19T16:22:34;13;13;10
70243;PMS7003;57634;51.136;17.024;2022-08-19T16:25:36;17;16;10
70243;PMS7003;57634;51.136;17.024;2022-08-19T16:28:39;14;12;9
70243;PMS7003;57634;51.136;17.024;2022-08-19T16:34:16;15;14;11
70243;PMS7003;57634;51.136;17.024;2022-08-19T16:37:18;16;15;12
70243;PMS7003;57634;51.136;17.024;2022-08-19T16:40:22;14;13;11
70243;PMS7003;57634;51.136;17.024;2022-08-19T16:43:25;15;15;12
70243;PMS7003;57634;51.136;17.024;2022-08-19T16:46:30;24;22;15
70243;PMS7003;57634;51.136;17.024;2022-08-19T16:49:32;33;30;20
70243;PMS7003;57634;51.136;17.024;2022-08-19T16:52:33;17;17;12
70243;PMS7003;57634;51.136;17.024;2022-08-19T16:55:36;16;16;11
70243;PMS7003;57634;51.136;17.024;2022-08-19T16:58:37;14;14;10
70243;PMS7003;57634;51.136;17.024;2022-08-19T17:01:39;15;15;11
70243;PMS7003;57634;51.136;17.024;2022-08-19T17:04:43;23;23;16
70243;PMS7003;57634;51.136;17.024;2022-08-19T17:08:11;20;20;13
70243;PMS7003;57634;51.136;17.024;2022-08-19T17:11:18;17;17;11
70243;PMS7003;57634;51.136;17.024;2022-08-19T17:14:21;14;14;11
70243;PMS7003;57634;51.136;17.024;2022-08-19T17:17:23;18;16;11
70243;PMS7003;57634;51.136;17.024;2022-08-19T17:20:24;14;14;10
70243;PMS7003;57634;51.136;17.024;2022-08-19T17:23:26;12;12;9
70243;PMS7003;57634;51.136;17.024;2022-08-19T17:26:29;17;15;11
70243;PMS7003;57634;51.136;17.024;2022-08-19T17:29:31;15;13;11
70243;PMS7003;57634;51.136;17.024;2022-08-19T17:32:33;15;15;11
70243;PMS7003;57634;51.136;17.024;2022-08-19T17:35:35;13;13;9
70243;PMS7003;57634;51.136;17.024;2022-08-19T17:39:10;16;15;11
70243;PMS7003;57634;51.136;17.024;2022-08-19T17:42:11;16;15;9
70243;PMS7003;57634;51.136;17.024;2022-08-19T17:45:13;15;14;11
70243;PMS7003;57634;51.136;17.024;2022-08-19T17:48:15;14;14;11
70243;PMS7003;57634;51.136;17.024;2022-08-19T17:51:21;14;13;9
70243;PMS7003;57634;51.136;17.024;2022-08-19T17:54:27;14;14;11
70243;PMS7003;57634;51.136;17.024;2022-08-19T17:57:28;15;15;11
70243;PMS7003;57634;51.136;17.024;2022-08-19T18:00:31;16;15;10
70243;PMS7003;57634;51.136;17.024;2022-08-19T18:03:34;14;14;11
70243;PMS7003;57634;51.136;17.024;2022-08-19T18:06:35;16;16;11
70243;PMS7003;57634;51.136;17.024;2022-08-19T18:09:38;16;15;11
70243;PMS7003;57634;51.136;17.024;2022-08-19T18:13:06;13;13;10
70243;PMS7003;57634;51.136;17.024;2022-08-19T18:16:10;17;16;11
70243;PMS7003;57634;51.136;17.024;2022-08-19T18:19:12;15;15;10
70243;PMS7003;57634;51.136;17.024;2022-08-19T18:25:24;15;14;10
70243;PMS7003;57634;51.136;17.024;2022-08-19T18:28:27;17;17;11
70243;PMS7003;57634;51.136;17.024;2022-08-19T18:31:28;17;16;11
70243;PMS7003;57634;51.136;17.024;2022-08-19T18:34:30;21;20;16
70243;PMS7003;57634;51.136;17.024;2022-08-19T18:37:32;20;19;14
70243;PMS7003;57634;51.136;17.024;2022-08-19T18:40:33;19;19;13
70243;PMS7003;57634;51.136;17.024;2022-08-19T18:44:12;17;16;11
70243;PMS7003;57634;51.136;17.024;2022-08-19T18:47:26;19;19;13
70243;PMS7003;57634;51.136;17.024;2022-08-19T18:50:39;31;28;19
70243;PMS7003;57634;51.136;17.024;2022-08-19T18:53:45;20;20;15
70243;PMS7003;57634;51.136;17.024;2022-08-19T18:56:48;19;19;14
70243;PMS7003;57634;51.136;17.024;2022-08-19T18:59:55;18;16;13
70243;PMS7003;57634;51.136;17.024;2022-08-19T19:03:26;16;15;10
70243;PMS7003;57634;51.136;17.024;2022-08-19T19:06:31;17;17;12
70243;PMS7003;57634;51.136;17.024;2022-08-19T19:09:39;20;18;12
70243;PMS7003;57634;51.136;17.024;2022-08-19T19:12:42;18;17;12
70243;PMS7003;57634;51.136;17.024;2022-08-19T19:15:48;16;15;11
70243;PMS7003;57634;51.136;17.024;2022-08-19T19:18:50;14;14;10
70243;PMS7003;57634;51.136;17.024;2022-08-19T19:21:52;15;15;11
70243;PMS7003;57634;51.136;17.024;2022-08-19T19:24:54;15;15;11
70243;PMS7003;57634;51.136;17.024;2022-08-19T19:27:58;11;10;7
70243;PMS7003;57634;51.136;17.024;2022-08-19T19:31:26;17;16;11
70243;PMS7003;57634;51.136;17.024;2022-08-19T19:34:28;16;16;13
70243;PMS7003;57634;51.136;17.024;2022-08-19T19:37:29;16;14;11
70243;PMS7003;57634;51.136;17.024;2022-08-19T19:40:31;17;16;11
70243;PMS7003;57634;51.136;17.024;2022-08-19T19:43:32;18;17;13
70243;PMS7003;57634;51.136;17.024;2022-08-19T19:46:35;16;16;12
70243;PMS7003;57634;51.136;17.024;2022-08-19T19:49:37;16;16;12
70243;PMS7003;57634;51.136;17.024;2022-08-19T19:52:41;15;15;11
70243;PMS7003;57634;51.136;17.024;2022-08-19T19:55:45;13;13;11
70243;PMS7003;57634;51.136;17.024;2022-08-19T19:58:47;15;15;11
70243;PMS7003;57634;51.136;17.024;2022-08-19T20:01:52;16;16;11
70243;PMS7003;57634;51.136;17.024;2022-08-19T20:05:22;15;14;10
70243;PMS7003;57634;51.136;17.024;2022-08-19T20:08:25;14;13;10
70243;PMS7003;57634;51.136;17.024;2022-08-19T20:11:44;14;13;11
70243;PMS7003;57634;51.136;17.024;2022-08-19T20:14:48;13;12;9
70243;PMS7003;57634;51.136;17.024;2022-08-19T20:17:50;11;11;8